Time;durP1;ratioP1;P1;durP2;ratioP2;P2;SDS_P1;SDS_P2;PMS_P1;PMS_P2;Temp;Humidity;BMP_temperature;BMP_pressure;BME280_temperature;BME280_humidity;BME280_pressure;Samples;Min_cycle;Max_cycle;Signal;HPM_P1;HPM_P2
2023/09/09 00:01:43;;;;;;;7.95;4.88;;;23.20;52.00;;;;;;4977412;28;20057;-56
2023/09/09 00:04:11;;;;;;;9.35;5.20;;;23.20;51.90;;;;;;4982869;28;20419;-55
2023/09/09 00:06:38;;;;;;;9.07;4.70;;;23.10;51.90;;;;;;4980488;28;20065;-56
2023/09/09 00:09:06;;;;;;;6.15;4.60;;;23.10;52.00;;;;;;4982344;28;20058;-56
2023/09/09 00:11:34;;;;;;;7.53;5.20;;;23.10;52.10;;;;;;4981011;28;20046;-55
2023/09/09 00:14:02;;;;;;;8.30;5.05;;;23.10;52.10;;;;;;4981958;28;20054;-56
2023/09/09 00:16:33;;;;;;;7.22;5.25;;;23.10;52.10;;;;;;4979274;28;20047;-55
2023/09/09 00:19:00;;;;;;;5.97;4.57;;;23.00;52.20;;;;;;4984981;28;20057;-56
2023/09/09 00:21:27;;;;;;;6.55;4.43;;;23.00;52.20;;;;;;4979588;28;20050;-56
2023/09/09 00:23:54;;;;;;;6.70;5.05;;;23.00;52.20;;;;;;4982956;28;20057;-55
2023/09/09 00:26:22;;;;;;;9.98;5.20;;;23.00;52.20;;;;;;4981886;28;20506;-56
2023/09/09 00:28:50;;;;;;;7.65;5.22;;;23.00;52.80;;;;;;4982004;28;20995;-57
2023/09/09 00:31:17;;;;;;;7.70;5.22;;;22.90;52.30;;;;;;4980731;28;20057;-55
2023/09/09 00:33:45;;;;;;;7.00;4.45;;;22.90;52.80;;;;;;4983539;28;20050;-56
2023/09/09 00:36:14;;;;;;;7.03;5.38;;;22.90;52.40;;;;;;4982110;28;20050;-55
2023/09/09 00:38:41;;;;;;;6.45;5.05;;;22.90;52.50;;;;;;4981338;28;20050;-55
2023/09/09 00:41:13;;;;;;;7.28;5.00;;;22.80;52.50;;;;;;4978561;28;20059;-50
2023/09/09 00:43:41;;;;;;;6.53;5.20;;;22.80;52.50;;;;;;4982011;28;20066;-56
2023/09/09 00:46:11;;;;;;;8.68;5.13;;;22.80;52.50;;;;;;4981751;28;20050;-56
2023/09/09 00:48:38;;;;;;;6.07;4.85;;;22.70;52.50;;;;;;4983091;28;20096;-57
2023/09/09 00:51:06;;;;;;;6.47;4.85;;;22.70;52.60;;;;;;4978239;28;20062;-56
2023/09/09 00:53:34;;;;;;;6.72;4.90;;;22.70;52.70;;;;;;4982235;28;20058;-56
2023/09/09 00:56:04;;;;;;;7.35;5.28;;;22.70;52.70;;;;;;4980199;28;20053;-56
2023/09/09 00:58:32;;;;;;;6.93;4.88;;;22.70;52.70;;;;;;4978011;28;20053;-56
2023/09/09 01:01:01;;;;;;;8.55;5.65;;;22.70;52.80;;;;;;4980581;28;20061;-55
2023/09/09 01:03:39;;;;;;;8.82;5.20;;;22.60;52.80;;;;;;4976711;23;20066;-90
2023/09/09 01:06:07;;;;;;;7.95;5.00;;;22.60;52.90;;;;;;4957900;28;20606;-88
2023/09/09 01:08:34;;;;;;;8.90;5.13;;;22.60;52.90;;;;;;4961191;28;20371;-90
2023/09/09 01:11:02;;;;;;;8.63;5.18;;;22.60;53.00;;;;;;4966936;28;20050;-91
2023/09/09 01:13:30;;;;;;;6.00;4.95;;;22.60;53.00;;;;;;4960943;28;20058;-90
2023/09/09 01:15:57;;;;;;;6.70;4.93;;;22.50;53.00;;;;;;4960884;28;20054;-89
2023/09/09 01:18:25;;;;;;;8.60;5.10;;;22.50;53.00;;;;;;4961687;28;20069;-93
2023/09/09 01:21:00;;;;;;;7.95;5.20;;;22.50;53.00;;;;;;4961659;28;20054;-91
2023/09/09 01:23:29;;;;;;;7.65;5.20;;;22.50;53.10;;;;;;4962078;28;20061;-89
2023/09/09 01:25:56;;;;;;;8.85;5.47;;;22.50;53.10;;;;;;4959335;28;20083;-90
2023/09/09 01:28:24;;;;;;;6.47;5.20;;;22.40;53.00;;;;;;4957072;28;20074;-88
2023/09/09 01:30:51;;;;;;;5.00;4.50;;;22.40;53.10;;;;;;4961315;28;20069;-90
2023/09/09 01:33:22;;;;;;;7.15;5.25;;;22.40;53.10;;;;;;4960781;28;20050;-90
2023/09/09 01:35:49;;;;;;;7.15;5.28;;;22.40;53.20;;;;;;4959476;28;20499;-88
2023/09/09 01:38:16;;;;;;;9.30;4.65;;;22.30;53.10;;;;;;4958129;28;20050;-88
2023/09/09 01:40:45;;;;;;;8.20;5.20;;;22.30;53.20;;;;;;4962838;28;20058;-91
2023/09/09 01:43:12;;;;;;;5.85;4.97;;;22.30;53.20;;;;;;4962639;28;20059;-91
2023/09/09 01:45:40;;;;;;;6.72;5.20;;;22.30;53.20;;;;;;4960152;28;20086;-91
2023/09/09 01:48:07;;;;;;;6.28;4.72;;;22.30;53.20;;;;;;4959744;28;20051;-90
2023/09/09 01:50:35;;;;;;;6.78;5.32;;;22.30;53.30;;;;;;4955753;28;20058;-92
2023/09/09 01:53:02;;;;;;;5.63;4.65;;;22.30;53.40;;;;;;4960547;28;20055;-88
2023/09/09 01:55:30;;;;;;;6.63;4.95;;;22.20;53.30;;;;;;4956326;28;20396;-91
2023/09/09 01:57:58;;;;;;;8.10;4.78;;;22.20;53.30;;;;;;4960408;28;20066;-89
2023/09/09 02:00:27;;;;;;;7.88;5.05;;;22.20;53.30;;;;;;4962594;28;20055;-90
2023/09/09 02:02:55;;;;;;;8.75;5.25;;;22.20;53.30;;;;;;4958094;28;20139;-90
2023/09/09 02:05:22;;;;;;;7.00;5.15;;;22.20;53.40;;;;;;4957758;28;20678;-86
2023/09/09 02:07:50;;;;;;;5.77;4.63;;;22.20;53.40;;;;;;4958039;28;20065;-88
2023/09/09 02:10:17;;;;;;;6.57;4.95;;;22.20;53.40;;;;;;4961404;28;20065;-87
2023/09/09 02:12:45;;;;;;;10.68;5.47;;;22.20;53.90;;;;;;4954929;28;20055;-88
2023/09/09 02:15:15;;;;;;;5.93;4.82;;;22.10;53.40;;;;;;4960883;28;20047;-87
2023/09/09 02:17:42;;;;;;;7.13;5.22;;;22.10;53.40;;;;;;4961090;28;20051;-86
2023/09/09 02:20:10;;;;;;;6.50;5.10;;;22.10;53.40;;;;;;4960644;28;20051;-86
2023/09/09 02:22:37;;;;;;;7.30;5.30;;;22.10;53.40;;;;;;4956074;28;20085;-86
2023/09/09 02:25:07;;;;;;;7.32;4.88;;;22.10;53.50;;;;;;4958349;28;20050;-87
2023/09/09 02:27:35;;;;;;;8.68;5.38;;;22.00;53.40;;;;;;4961454;28;20051;-87
2023/09/09 02:30:02;;;;;;;7.60;5.13;;;22.00;53.40;;;;;;4967049;28;20514;-86
2023/09/09 02:32:31;;;;;;;6.63;4.82;;;22.00;53.50;;;;;;4958093;28;20504;-87
2023/09/09 02:34:59;;;;;;;6.70;4.75;;;22.00;53.50;;;;;;4958129;28;20078;-86
2023/09/09 02:37:27;;;;;;;7.93;5.00;;;22.00;53.50;;;;;;4961052;28;20510;-85
2023/09/09 02:39:55;;;;;;;6.68;4.85;;;22.00;53.50;;;;;;4957175;28;20061;-89
2023/09/09 02:42:24;;;;;;;6.78;5.13;;;21.90;53.50;;;;;;4959990;28;20055;-85
2023/09/09 02:44:51;;;;;;;8.93;5.35;;;21.90;53.60;;;;;;4958066;28;20069;-87
2023/09/09 02:47:31;;;;;;;7.63;4.93;;;21.90;53.60;;;;;;4960668;28;20074;-87
2023/09/09 02:49:59;;;;;;;6.32;4.47;;;21.90;53.70;;;;;;4950218;28;20053;-86
2023/09/09 02:52:32;;;;;;;6.05;4.78;;;21.90;53.70;;;;;;4958920;28;20053;-87
2023/09/09 02:55:09;;;;;;;6.97;5.03;;;21.90;53.70;;;;;;4958033;28;20426;-90
2023/09/09 02:57:36;;;;;;;6.20;5.20;;;21.90;53.70;;;;;;4959866;28;20061;-85
2023/09/09 03:00:07;;;;;;;8.32;5.07;;;21.90;53.70;;;;;;4959381;28;20387;-87
2023/09/09 03:02:36;;;;;;;9.52;5.40;;;21.80;53.60;;;;;;4957087;28;20058;-86
2023/09/09 03:05:04;;;;;;;7.30;4.90;;;21.80;53.70;;;;;;4957334;28;20061;-88
2023/09/09 03:07:32;;;;;;;5.85;4.32;;;21.80;53.70;;;;;;4958365;28;20050;-86
2023/09/09 03:09:59;;;;;;;6.45;5.00;;;21.80;53.70;;;;;;4958647;28;20055;-88
2023/09/09 03:12:26;;;;;;;27.95;15.93;;;21.80;53.80;;;;;;4955227;28;20051;-87
2023/09/09 03:17:24;;;;;;;12.35;8.52;;;21.70;53.80;;;;;;4921438;29;20420;-57
2023/09/09 03:19:52;;;;;;;9.00;6.38;;;21.70;53.80;;;;;;4922367;29;20059;-57
2023/09/09 03:22:20;;;;;;;7.00;5.47;;;21.70;53.90;;;;;;4920623;29;20520;-59
2023/09/09 03:24:47;;;;;;;8.98;5.68;;;21.70;53.90;;;;;;4921893;29;20070;-57
2023/09/09 03:27:14;;;;;;;6.68;5.47;;;21.70;53.90;;;;;;4923789;29;20054;-57
2023/09/09 03:29:42;;;;;;;6.57;5.22;;;21.60;53.90;;;;;;4923599;29;20059;-57
2023/09/09 03:32:09;;;;;;;6.97;5.20;;;21.60;54.00;;;;;;4921111;29;20491;-57
2023/09/09 03:34:36;;;;;;;9.18;5.28;;;21.60;54.00;;;;;;4923628;29;20870;-57
2023/09/09 03:37:05;;;;;;;7.97;5.50;;;21.60;54.10;;;;;;4923449;29;20056;-57
2023/09/09 03:39:32;;;;;;;9.35;5.50;;;21.50;54.10;;;;;;4923720;29;20087;-57
2023/09/09 03:41:59;;;;;;;7.47;5.40;;;21.60;54.10;;;;;;4921315;29;20066;-58
2023/09/09 03:44:27;;;;;;;7.32;5.13;;;21.50;54.10;;;;;;4922825;29;20558;-58
2023/09/09 03:46:54;;;;;;;5.93;5.00;;;21.50;54.20;;;;;;4921112;29;20059;-57
2023/09/09 03:49:21;;;;;;;7.40;5.57;;;21.50;54.20;;;;;;4923769;29;20388;-57
2023/09/09 03:51:48;;;;;;;7.60;5.47;;;21.50;54.20;;;;;;4921452;29;20439;-58
2023/09/09 03:54:17;;;;;;;7.57;5.38;;;21.40;54.20;;;;;;4923819;29;20052;-58
2023/09/09 03:56:44;;;;;;;25.88;14.80;;;21.40;54.20;;;;;;4922802;29;20067;-57
2023/09/09 03:59:11;;;;;;;13.27;8.55;;;21.40;54.30;;;;;;4922636;29;20541;-60
2023/09/09 04:01:39;;;;;;;9.00;6.32;;;21.40;54.30;;;;;;4921264;29;20070;-57
2023/09/09 04:04:07;;;;;;;7.32;5.28;;;21.40;54.30;;;;;;4922062;29;20314;-60
2023/09/09 04:06:34;;;;;;;8.30;5.68;;;21.30;54.30;;;;;;4922335;29;20523;-59
2023/09/09 04:09:02;;;;;;;7.30;5.85;;;21.30;54.40;;;;;;4922779;29;20531;-57
2023/09/09 04:11:30;;;;;;;7.30;5.28;;;21.30;54.40;;;;;;4922354;29;20066;-58
2023/09/09 04:13:59;;;;;;;8.70;5.18;;;21.30;54.50;;;;;;4921792;29;20063;-57
2023/09/09 04:16:26;;;;;;;7.47;5.95;;;21.30;54.50;;;;;;4919801;29;20071;-57
2023/09/09 04:18:53;;;;;;;6.90;5.72;;;21.30;54.50;;;;;;4921518;29;20063;-57
2023/09/09 04:21:21;;;;;;;6.90;5.40;;;21.20;54.50;;;;;;4922786;29;20047;-58
2023/09/09 04:23:48;;;;;;;9.25;6.10;;;21.30;54.60;;;;;;4919177;29;20056;-57
2023/09/09 04:26:15;;;;;;;7.47;6.00;;;21.20;54.60;;;;;;4920533;29;20496;-57
2023/09/09 04:28:44;;;;;;;10.75;6.28;;;21.20;54.60;;;;;;4920826;29;20055;-63
2023/09/09 04:31:11;;;;;;;7.82;5.82;;;21.20;54.70;;;;;;4921646;29;20052;-62
2023/09/09 04:33:38;;;;;;;9.90;6.45;;;21.20;54.70;;;;;;4921258;29;20055;-62
2023/09/09 04:36:06;;;;;;;10.48;6.30;;;21.20;54.70;;;;;;4919783;29;20056;-63
2023/09/09 04:38:33;;;;;;;8.55;5.75;;;21.10;54.70;;;;;;4921999;29;20760;-63
2023/09/09 04:41:00;;;;;;;8.23;5.72;;;21.10;54.70;;;;;;4923683;29;20052;-64
2023/09/09 04:44:14;;;;;;;7.85;6.00;;;21.10;54.80;;;;;;4922434;29;20070;-63
2023/09/09 04:46:43;;;;;;;8.85;5.88;;;21.10;54.90;;;;;;4921594;29;20058;-64
2023/09/09 04:49:10;;;;;;;7.97;5.65;;;21.10;54.80;;;;;;4925168;29;20511;-63
2023/09/09 04:51:37;;;;;;;7.80;5.72;;;21.10;54.80;;;;;;4923988;29;20427;-61
2023/09/09 04:54:04;;;;;;;6.47;5.55;;;21.10;54.90;;;;;;4923194;29;20140;-65
2023/09/09 04:56:32;;;;;;;7.05;5.78;;;21.00;54.90;;;;;;4925250;29;20150;-63
2023/09/09 04:58:59;;;;;;;9.32;5.90;;;21.00;54.90;;;;;;4923316;29;20518;-63
2023/09/09 05:01:27;;;;;;;8.82;5.65;;;21.00;54.90;;;;;;4924095;29;20062;-63
2023/09/09 05:03:55;;;;;;;7.07;5.40;;;21.00;55.00;;;;;;4924952;29;20652;-63
2023/09/09 05:06:22;;;;;;;9.82;6.40;;;21.00;55.00;;;;;;4920738;29;20051;-62
2023/09/09 05:08:49;;;;;;;7.47;5.53;;;20.90;55.00;;;;;;4925013;29;20059;-62
2023/09/09 05:11:17;;;;;;;10.60;6.93;;;21.00;55.10;;;;;;4925526;29;20047;-63
2023/09/09 05:13:45;;;;;;;7.85;5.97;;;20.90;55.10;;;;;;4926322;29;20063;-64
2023/09/09 05:16:12;;;;;;;7.75;6.03;;;20.90;55.10;;;;;;4925860;29;20055;-64
2023/09/09 05:18:41;;;;;;;8.75;5.90;;;20.90;55.10;;;;;;4927177;29;20059;-64
2023/09/09 05:21:10;;;;;;;7.32;5.32;;;20.90;55.20;;;;;;4926618;29;20043;-64
2023/09/09 05:23:38;;;;;;;7.03;5.72;;;20.90;55.20;;;;;;4925244;29;20055;-64
2023/09/09 05:26:05;;;;;;;8.77;6.07;;;21.00;55.30;;;;;;4925010;29;20059;-63
2023/09/09 05:28:33;;;;;;;8.95;5.53;;;20.90;55.80;;;;;;4924858;29;20385;-63
2023/09/09 05:31:00;;;;;;;7.35;5.28;;;20.90;55.30;;;;;;4924242;29;20055;-62
2023/09/09 05:33:27;;;;;;;6.95;5.57;;;20.90;55.40;;;;;;4926184;29;20055;-64
2023/09/09 05:35:55;;;;;;;9.90;6.15;;;20.90;55.40;;;;;;4926417;29;20062;-63
2023/09/09 05:38:25;;;;;;;8.07;6.07;;;21.00;55.50;;;;;;4927287;29;20066;-63
2023/09/09 05:40:53;;;;;;;8.43;5.50;;;20.90;55.60;;;;;;4927441;29;20058;-63
2023/09/09 05:43:20;;;;;;;9.13;5.75;;;20.90;55.60;;;;;;4927384;29;20055;-64
2023/09/09 05:45:47;;;;;;;9.80;6.13;;;20.90;55.60;;;;;;4927223;29;20059;-64
2023/09/09 05:48:15;;;;;;;8.70;5.35;;;20.90;55.70;;;;;;4927120;29;20051;-64
2023/09/09 05:50:42;;;;;;;12.60;7.00;;;20.90;55.70;;;;;;4925204;29;20484;-65
2023/09/09 05:53:10;;;;;;;10.13;6.13;;;20.90;55.80;;;;;;4922857;29;20051;-63
2023/09/09 05:55:38;;;;;;;8.00;6.05;;;20.90;55.80;;;;;;4925163;29;20096;-64
2023/09/09 05:58:06;;;;;;;6.88;5.40;;;20.90;55.80;;;;;;4921637;29;20416;-64
2023/09/09 06:00:34;;;;;;;7.47;5.47;;;20.90;55.90;;;;;;4925441;29;20056;-63
2023/09/09 06:03:02;;;;;;;6.30;5.00;;;20.90;55.90;;;;;;4921480;29;20708;-62
2023/09/09 06:05:29;;;;;;;7.53;5.32;;;21.00;56.00;;;;;;4922793;29;20063;-64
2023/09/09 06:07:57;;;;;;;7.95;5.78;;;21.00;56.00;;;;;;4924772;29;20511;-62
2023/09/09 06:10:25;;;;;;;14.43;6.18;;;21.00;56.10;;;;;;4918005;29;20052;-63
2023/09/09 06:12:53;;;;;;;8.18;5.85;;;21.00;56.20;;;;;;4919177;29;20055;-63
2023/09/09 06:15:21;;;;;;;12.73;5.63;;;21.00;56.20;;;;;;4917653;29;20059;-61
2023/09/09 06:17:49;;;;;;;8.07;5.72;;;21.10;56.30;;;;;;4920338;29;20060;-64
2023/09/09 06:20:16;;;;;;;6.78;5.50;;;21.10;56.30;;;;;;4917588;29;20055;-64
2023/09/09 06:22:44;;;;;;;8.05;5.70;;;21.10;56.40;;;;;;4916504;28;20063;-64
2023/09/09 06:25:11;;;;;;;5.80;4.78;;;21.20;56.50;;;;;;4920254;29;20056;-63
2023/09/09 06:27:38;;;;;;;6.68;5.65;;;21.20;56.60;;;;;;4921681;28;20525;-62
2023/09/09 06:30:08;;;;;;;7.90;5.45;;;21.20;56.60;;;;;;4919602;29;20484;-62
2023/09/09 06:32:35;;;;;;;9.45;6.05;;;21.20;56.70;;;;;;4918968;29;20055;-62
2023/09/09 06:35:03;;;;;;;9.32;5.75;;;21.30;56.70;;;;;;4917489;29;20419;-63
2023/09/09 06:37:30;;;;;;;8.15;5.78;;;21.30;57.20;;;;;;4918315;29;20058;-62
2023/09/09 06:39:57;;;;;;;10.30;5.38;;;21.30;56.80;;;;;;4918863;29;20099;-62
2023/09/09 06:42:25;;;;;;;9.40;5.90;;;21.40;56.90;;;;;;4919283;29;20055;-63
2023/09/09 06:44:52;;;;;;;10.82;6.40;;;21.40;56.90;;;;;;4920775;29;20052;-63
2023/09/09 06:47:20;;;;;;;11.65;6.45;;;21.40;57.00;;;;;;4920992;29;20048;-60
2023/09/09 06:49:48;;;;;;;10.32;6.00;;;21.40;57.00;;;;;;4918058;29;20059;-58
2023/09/09 06:52:15;;;;;;;10.25;5.75;;;21.50;57.10;;;;;;4915078;29;20047;-57
2023/09/09 06:54:43;;;;;;;7.50;5.53;;;21.50;57.10;;;;;;4917022;29;20062;-57
2023/09/09 06:57:11;;;;;;;8.55;5.60;;;21.60;57.20;;;;;;4918973;29;20503;-61
2023/09/09 06:59:39;;;;;;;7.65;5.97;;;21.60;57.30;;;;;;4919831;29;20067;-59
2023/09/09 07:02:06;;;;;;;9.15;6.00;;;21.60;57.30;;;;;;4919253;29;20111;-57
2023/09/09 07:04:36;;;;;;;9.48;5.50;;;21.60;57.30;;;;;;4920781;29;20519;-56
2023/09/09 07:07:03;;;;;;;23.17;13.27;;;21.70;57.30;;;;;;4918651;29;20063;-58
2023/09/09 07:09:30;;;;;;;40.75;23.05;;;21.80;57.30;;;;;;4916364;28;20608;-60
2023/09/09 07:11:59;;;;;;;30.85;18.63;;;21.80;57.20;;;;;;4919677;29;20054;-57
2023/09/09 07:14:26;;;;;;;28.40;11.57;;;21.90;57.30;;;;;;4922159;29;20056;-58
2023/09/09 07:16:54;;;;;;;14.50;8.10;;;21.90;57.20;;;;;;4917694;28;20055;-60
2023/09/09 07:19:21;;;;;;;13.63;6.38;;;22.00;57.30;;;;;;4918078;29;20062;-58
2023/09/09 07:21:49;;;;;;;8.05;5.70;;;22.00;57.30;;;;;;4917654;29;20070;-57
2023/09/09 07:24:17;;;;;;;9.13;5.80;;;22.10;57.40;;;;;;4921037;29;20063;-58
2023/09/09 07:26:44;;;;;;;9.35;5.63;;;22.10;57.30;;;;;;4918952;29;20055;-58
2023/09/09 07:29:11;;;;;;;9.50;5.53;;;22.20;57.40;;;;;;4918586;29;20432;-57
2023/09/09 07:31:39;;;;;;;8.32;5.80;;;22.30;57.50;;;;;;4920387;29;20531;-57
2023/09/09 07:34:06;;;;;;;16.63;5.63;;;22.30;57.40;;;;;;4917506;29;20515;-57
2023/09/09 07:36:34;;;;;;;11.50;5.72;;;22.40;57.40;;;;;;4918140;29;20055;-59
2023/09/09 07:39:02;;;;;;;9.80;5.40;;;22.40;57.40;;;;;;4919030;29;20062;-59
2023/09/09 07:41:31;;;;;;;7.35;5.30;;;22.50;57.40;;;;;;4919547;28;20515;-57
2023/09/09 07:43:58;;;;;;;7.78;5.40;;;22.50;57.40;;;;;;4915968;29;20066;-59
2023/09/09 07:46:26;;;;;;;11.40;5.15;;;22.60;57.40;;;;;;4919170;29;20416;-60
2023/09/09 07:48:53;;;;;;;9.68;5.80;;;22.60;57.30;;;;;;4915440;29;20513;-60
2023/09/09 07:51:21;;;;;;;8.77;5.78;;;22.70;57.30;;;;;;4913546;29;20055;-59
2023/09/09 07:53:48;;;;;;;7.93;5.80;;;22.70;57.30;;;;;;4917091;28;20067;-58
2023/09/09 07:56:17;;;;;;;7.00;5.28;;;22.80;57.40;;;;;;4920812;29;20424;-55
2023/09/09 07:58:44;;;;;;;8.77;5.95;;;22.80;57.40;;;;;;4922168;29;20471;-57
2023/09/09 08:01:13;;;;;;;6.05;5.32;;;22.90;57.30;;;;;;4920454;29;20052;-60
2023/09/09 08:03:40;;;;;;;8.23;5.55;;;22.90;57.30;;;;;;4914288;29;20070;-58
2023/09/09 08:06:07;;;;;;;8.30;5.78;;;23.00;57.40;;;;;;4915819;29;20059;-57
2023/09/09 08:08:36;;;;;;;7.85;5.53;;;23.00;57.30;;;;;;4916183;29;20070;-57
2023/09/09 08:11:03;;;;;;;9.40;5.47;;;23.10;57.30;;;;;;4916964;29;20051;-57
2023/09/09 08:13:33;;;;;;;9.30;5.38;;;23.10;57.20;;;;;;4914133;29;20079;-58
2023/09/09 08:16:00;;;;;;;6.93;5.25;;;23.20;57.20;;;;;;4917919;29;20153;-55
2023/09/09 08:18:27;;;;;;;8.10;5.80;;;23.20;57.20;;;;;;4915957;29;20047;-59
2023/09/09 08:20:55;;;;;;;6.50;5.10;;;23.30;57.20;;;;;;4915020;29;20067;-57
2023/09/09 08:23:23;;;;;;;9.02;5.97;;;23.40;57.20;;;;;;4918960;28;20056;-59
2023/09/09 08:25:50;;;;;;;8.77;5.95;;;23.40;57.10;;;;;;4920357;29;20060;-58
2023/09/09 08:28:18;;;;;;;8.52;5.40;;;23.50;57.10;;;;;;4923436;29;20058;-57
2023/09/09 08:30:46;;;;;;;11.43;5.82;;;23.50;57.00;;;;;;4921781;28;20051;-57
2023/09/09 08:33:13;;;;;;;7.68;5.35;;;23.50;57.00;;;;;;4918124;29;20059;-61
2023/09/09 08:35:41;;;;;;;6.40;5.35;;;23.60;56.90;;;;;;4919239;29;20055;-59
2023/09/09 08:38:08;;;;;;;6.65;5.20;;;23.60;56.80;;;;;;4921438;29;20060;-59
2023/09/09 08:40:45;;;;;;;7.88;5.93;;;23.70;56.90;;;;;;4919758;29;20051;-58
2023/09/09 08:43:19;;;;;;;7.95;5.50;;;23.80;57.00;;;;;;4917634;29;20059;-59
2023/09/09 08:45:58;;;;;;;7.20;5.53;;;23.80;56.80;;;;;;4920375;29;20492;-57
2023/09/09 08:48:28;;;;;;;7.20;5.35;;;23.90;57.00;;;;;;4923607;29;20427;-57
2023/09/09 08:50:58;;;;;;;8.55;5.70;;;24.00;57.00;;;;;;4920378;29;20431;-60
2023/09/09 08:53:28;;;;;;;6.65;5.80;;;24.00;57.10;;;;;;4920721;29;20392;-56
2023/09/09 08:55:56;;;;;;;8.65;5.90;;;24.10;56.90;;;;;;4917584;29;20476;-57
2023/09/09 08:58:24;;;;;;;7.47;5.70;;;24.20;56.90;;;;;;4920956;28;20579;-59
2023/09/09 09:00:54;;;;;;;10.75;6.18;;;24.20;56.80;;;;;;4921484;29;20062;-58
2023/09/09 09:03:22;;;;;;;10.23;6.70;;;24.30;56.60;;;;;;4918323;29;20552;-56
2023/09/09 09:05:51;;;;;;;9.70;6.35;;;24.40;56.60;;;;;;4921527;29;20504;-57
2023/09/09 09:08:18;;;;;;;8.15;6.40;;;24.40;56.50;;;;;;4921519;29;20052;-61
2023/09/09 09:10:47;;;;;;;10.95;7.20;;;24.50;56.50;;;;;;4919201;29;20559;-60
2023/09/09 09:13:14;;;;;;;6.80;5.85;;;24.50;56.40;;;;;;4920987;29;20519;-62
2023/09/09 09:15:43;;;;;;;9.30;6.38;;;24.60;56.30;;;;;;4919712;29;20055;-62
2023/09/09 09:18:11;;;;;;;8.43;6.97;;;24.70;56.20;;;;;;4920744;29;20488;-60
2023/09/09 09:20:40;;;;;;;9.68;6.20;;;24.70;56.00;;;;;;4925905;29;20055;-61
2023/09/09 09:23:12;;;;;;;7.95;6.57;;;24.80;56.00;;;;;;4922029;29;20063;-60
2023/09/09 09:25:44;;;;;;;7.43;6.30;;;24.90;56.20;;;;;;4919759;29;20063;-59
2023/09/09 09:28:12;;;;;;;12.93;7.28;;;25.00;56.40;;;;;;4924601;29;20070;-61
2023/09/09 09:30:40;;;;;;;10.00;7.18;;;25.00;56.30;;;;;;4919360;29;20404;-62
2023/09/09 09:33:07;;;;;;;12.05;7.10;;;25.10;55.80;;;;;;4920837;29;20048;-60
2023/09/09 09:35:37;;;;;;;10.23;6.93;;;25.20;55.40;;;;;;4916913;28;20056;-61
2023/09/09 09:38:06;;;;;;;9.52;6.05;;;25.30;55.50;;;;;;4921935;29;20062;-61
2023/09/09 09:40:35;;;;;;;11.15;6.78;;;25.40;55.50;;;;;;4920067;28;20062;-61
2023/09/09 09:43:02;;;;;;;16.05;7.53;;;25.50;55.60;;;;;;4919763;29;21554;-61
2023/09/09 09:45:31;;;;;;;10.05;6.45;;;25.60;55.80;;;;;;4924673;29;20063;-61
2023/09/09 09:47:59;;;;;;;57.15;20.10;;;25.60;54.80;;;;;;4925068;29;20066;-61
2023/09/09 09:50:30;;;;;;;14.63;8.63;;;25.70;54.60;;;;;;4917402;29;20055;-60
2023/09/09 09:53:01;;;;;;;19.08;8.35;;;25.80;54.60;;;;;;4920547;29;20074;-62
2023/09/09 09:55:29;;;;;;;15.52;7.35;;;25.80;54.90;;;;;;4920888;29;20062;-61
2023/09/09 09:57:58;;;;;;;11.68;7.07;;;25.90;54.40;;;;;;4919211;29;20055;-61
2023/09/09 10:00:27;;;;;;;16.10;7.90;;;25.90;54.50;;;;;;4918413;29;20054;-61
2023/09/09 10:02:55;;;;;;;15.35;7.13;;;26.00;54.00;;;;;;4920845;29;20056;-60
2023/09/09 10:05:23;;;;;;;10.35;7.13;;;26.00;54.00;;;;;;4917646;29;20399;-62
2023/09/09 10:07:53;;;;;;;9.35;6.45;;;26.10;54.10;;;;;;4918528;29;20066;-60
2023/09/09 10:10:24;;;;;;;8.98;6.70;;;26.20;54.30;;;;;;4920748;29;20071;-59
2023/09/09 10:12:55;;;;;;;10.40;6.47;;;26.30;54.40;;;;;;4923252;29;20420;-60
2023/09/09 10:15:22;;;;;;;12.40;7.15;;;26.30;54.70;;;;;;4920876;29;20063;-63
2023/09/09 10:17:52;;;;;;;13.98;7.20;;;26.40;54.20;;;;;;4919465;29;20051;-57
2023/09/09 10:20:19;;;;;;;12.38;7.15;;;26.50;53.90;;;;;;4918712;29;20527;-55
2023/09/09 10:22:53;;;;;;;8.10;6.68;;;26.50;53.70;;;;;;4918630;28;20055;-58
2023/09/09 10:25:23;;;;;;;10.57;6.78;;;26.60;53.90;;;;;;4922371;29;20060;-57
2023/09/09 10:27:51;;;;;;;11.15;7.63;;;26.70;54.20;;;;;;4919049;29;20056;-57
2023/09/09 10:30:19;;;;;;;7.72;5.75;;;26.70;53.50;;;;;;4921399;29;20080;-54
2023/09/09 10:32:48;;;;;;;11.07;7.68;;;26.80;53.60;;;;;;4918474;29;20066;-56
2023/09/09 10:35:16;;;;;;;10.43;6.00;;;26.80;53.30;;;;;;4921620;29;20056;-58
2023/09/09 10:37:46;;;;;;;13.45;6.57;;;26.90;53.20;;;;;;4916166;29;20436;-54
2023/09/09 10:40:15;;;;;;;8.43;6.63;;;26.90;53.30;;;;;;4917799;29;21810;-59
2023/09/09 10:42:44;;;;;;;10.07;6.35;;;27.00;53.00;;;;;;4916639;29;20055;-57
2023/09/09 10:45:28;;;;;;;9.10;6.30;;;27.00;53.10;;;;;;4921571;29;20056;-58
2023/09/09 10:47:58;;;;;;;11.93;6.45;;;27.10;53.30;;;;;;4922317;29;20715;-56
2023/09/09 10:50:40;;;;;;;10.82;5.35;;;27.10;53.10;;;;;;4916806;29;20056;-57
2023/09/09 10:53:14;;;;;;;14.70;5.30;;;27.20;53.20;;;;;;4918912;29;20055;-57
2023/09/09 10:55:42;;;;;;;14.85;6.90;;;27.20;53.10;;;;;;4920905;29;20068;-56
2023/09/09 10:58:15;;;;;;;14.27;6.20;;;27.30;52.10;;;;;;4919477;29;20063;-53
2023/09/09 11:00:44;;;;;;;8.85;5.40;;;27.30;52.10;;;;;;4918856;29;20497;-55
2023/09/09 11:03:14;;;;;;;10.32;5.53;;;27.30;52.30;;;;;;4919280;28;20059;-54
2023/09/09 11:06:02;;;;;;;13.15;6.45;;;27.40;52.50;;;;;;4922215;28;20059;-52
2023/09/09 11:08:31;;;;;;;10.90;5.93;;;27.50;52.00;;;;;;4917908;29;20136;-53
2023/09/09 11:11:09;;;;;;;9.05;5.38;;;27.60;52.30;;;;;;4920542;29;20067;-50
2023/09/09 11:13:42;;;;;;;10.98;6.40;;;27.60;52.50;;;;;;4923305;29;20055;-58
2023/09/09 11:16:24;;;;;;;9.52;5.63;;;27.60;52.20;;;;;;4918588;29;20063;-50
2023/09/09 11:18:53;;;;;;;8.05;5.45;;;27.70;52.30;;;;;;4917583;29;20067;-58
2023/09/09 11:21:22;;;;;;;9.10;4.93;;;27.70;52.20;;;;;;4915987;29;20055;-50
2023/09/09 11:23:50;;;;;;;16.33;5.63;;;27.80;52.40;;;;;;4919132;29;20090;-50
2023/09/09 11:26:18;;;;;;;14.77;6.15;;;27.80;52.00;;;;;;4919953;29;20058;-56
2023/09/09 11:28:48;;;;;;;10.43;6.57;;;27.80;51.80;;;;;;4918548;29;20059;-58
2023/09/09 11:31:16;;;;;;;10.02;6.15;;;27.90;51.40;;;;;;4917331;29;20647;-50
2023/09/09 11:33:44;;;;;;;12.30;5.60;;;27.90;51.50;;;;;;4918685;29;21525;-56
2023/09/09 11:36:15;;;;;;;12.15;5.80;;;28.00;51.60;;;;;;4917629;29;20055;-49
2023/09/09 11:38:42;;;;;;;15.68;5.78;;;28.00;51.80;;;;;;4921321;29;20055;-58
2023/09/09 11:41:09;;;;;;;14.52;5.68;;;28.10;50.90;;;;;;4922904;29;20389;-57
2023/09/09 11:43:37;;;;;;;15.38;5.55;;;28.10;50.20;;;;;;4920683;29;20543;-58
2023/09/09 11:46:05;;;;;;;21.40;6.47;;;28.20;49.80;;;;;;4918888;29;20054;-55
2023/09/09 12:02:02;;;;;;;14.85;5.70;;;28.50;49.40;;;;;;4934079;23;20058;-51
2023/09/09 12:04:30;;;;;;;10.23;4.78;;;28.50;49.70;;;;;;4957290;28;20054;-55
2023/09/09 12:06:57;;;;;;;8.95;4.68;;;28.60;49.60;;;;;;4955325;28;20047;-51
2023/09/09 12:09:25;;;;;;;15.23;5.50;;;28.60;49.90;;;;;;4953197;28;20058;-58
2023/09/09 12:11:52;;;;;;;16.48;6.43;;;28.60;49.60;;;;;;4958667;28;20447;-53
2023/09/09 12:14:20;;;;;;;13.95;5.55;;;28.70;48.80;;;;;;4957055;28;20051;-59
2023/09/09 12:16:47;;;;;;;13.15;5.70;;;28.70;49.40;;;;;;4959587;28;20523;-48
2023/09/09 12:19:16;;;;;;;20.15;5.43;;;28.80;49.40;;;;;;4957322;28;20422;-57
2023/09/09 12:21:45;;;;;;;10.10;4.88;;;28.80;49.30;;;;;;4953772;28;20058;-55
2023/09/09 12:24:12;;;;;;;12.95;5.38;;;28.80;49.10;;;;;;4958021;28;20065;-48
2023/09/09 12:26:40;;;;;;;11.93;5.82;;;28.90;49.30;;;;;;4956177;28;20421;-51
2023/09/09 12:29:09;;;;;;;13.68;5.82;;;28.90;49.40;;;;;;4952615;28;20504;-58
2023/09/09 12:31:53;;;;;;;14.88;6.15;;;28.90;48.80;;;;;;4953631;28;20055;-54
2023/09/09 12:34:24;;;;;;;10.93;5.30;;;28.90;49.00;;;;;;4955558;28;20050;-55
2023/09/09 12:36:56;;;;;;;15.50;6.10;;;29.00;48.70;;;;;;4954403;28;20065;-56
2023/09/09 12:39:24;;;;;;;16.00;5.57;;;29.00;48.90;;;;;;4954977;28;20054;-53
2023/09/09 12:42:01;;;;;;;15.52;5.60;;;29.00;48.30;;;;;;4955858;28;20491;-51
2023/09/09 12:44:31;;;;;;;17.60;6.30;;;29.10;47.80;;;;;;4955879;28;20043;-56
2023/09/09 12:46:58;;;;;;;13.70;5.10;;;29.10;47.40;;;;;;4953471;28;20419;-58
2023/09/09 12:49:29;;;;;;;11.60;5.07;;;29.10;47.70;;;;;;4957026;28;20064;-55
2023/09/09 12:51:56;;;;;;;20.23;6.00;;;29.20;47.50;;;;;;4951311;28;20497;-55
2023/09/09 12:54:23;;;;;;;12.68;5.65;;;29.20;47.40;;;;;;4951589;28;20054;-55
2023/09/09 12:56:51;;;;;;;11.50;5.70;;;29.30;47.30;;;;;;4953700;28;20063;-53
2023/09/09 12:59:18;;;;;;;12.18;5.53;;;29.30;47.80;;;;;;4955491;28;20050;-53
2023/09/09 13:01:45;;;;;;;20.60;5.95;;;29.40;48.00;;;;;;4960403;28;20446;-53
2023/09/09 13:04:12;;;;;;;13.32;5.13;;;29.40;46.60;;;;;;4960687;28;20526;-54
2023/09/09 13:06:41;;;;;;;11.35;4.70;;;29.40;46.40;;;;;;4960874;28;20051;-57